Time;durP1;ratioP1;P1;durP2;ratioP2;P2;SDS_P1;SDS_P2;PMS_P1;PMS_P2;Temp;Humidity;BMP_temperature;BMP_pressure;BME280_temperature;BME280_humidity;BME280_pressure;Samples;Min_cycle;Max_cycle;Signal;HPM_P1;HPM_P2
2022/01/29 00:00:39;;;;;;;7.15;3.15;;;4.50;99.90;;;;;;5133992;27;20023;-75
2022/01/29 00:03:05;;;;;;;10.38;3.22;;;4.50;99.90;;;;;;5115669;27;20075;-76
2022/01/29 00:05:31;;;;;;;10.18;3.92;;;4.40;99.90;;;;;;5134537;27;20038;-75
2022/01/29 00:07:57;;;;;;;12.48;4.30;;;4.40;99.90;;;;;;5134642;27;20414;-76
2022/01/29 00:10:23;;;;;;;10.70;3.85;;;4.40;99.90;;;;;;5116182;27;20054;-77
2022/01/29 00:12:48;;;;;;;9.43;3.90;;;4.40;99.90;;;;;;5134661;27;20019;-76
2022/01/29 00:15:14;;;;;;;9.80;4.13;;;4.40;99.90;;;;;;5134343;27;20114;-73
2022/01/29 00:17:40;;;;;;;23.00;7.82;;;4.40;99.90;;;;;;5134395;27;20111;-75
2022/01/29 00:20:07;;;;;;;17.80;6.93;;;4.30;99.90;;;;;;5134272;27;20027;-73
2022/01/29 00:22:33;;;;;;;22.42;7.03;;;4.40;99.90;;;;;;5115788;27;20027;-76
2022/01/29 00:24:59;;;;;;;11.50;3.92;;;4.30;99.90;;;;;;5115789;27;20061;-78
2022/01/29 00:27:28;;;;;;;12.27;5.28;;;4.30;99.90;;;;;;5134348;27;20019;-77
2022/01/29 00:29:55;;;;;;;20.95;5.95;;;4.30;99.90;;;;;;5098208;27;20049;-76
2022/01/29 00:32:21;;;;;;;12.18;4.63;;;4.30;99.90;;;;;;5133716;27;20027;-78
2022/01/29 00:34:47;;;;;;;16.67;5.18;;;4.30;99.90;;;;;;5134241;27;20163;-77
2022/01/29 00:37:12;;;;;;;10.88;3.88;;;4.30;99.90;;;;;;5134097;27;20023;-76
2022/01/29 00:39:38;;;;;;;16.15;5.28;;;4.30;99.90;;;;;;5134205;27;20023;-74
2022/01/29 00:42:05;;;;;;;20.30;8.27;;;4.30;99.90;;;;;;5133487;27;20067;-78
2022/01/29 00:44:31;;;;;;;10.25;3.65;;;4.20;99.90;;;;;;5133673;27;20460;-78
2022/01/29 00:46:57;;;;;;;16.20;4.90;;;4.20;99.90;;;;;;5115175;27;20076;-77
2022/01/29 00:49:23;;;;;;;12.18;4.25;;;4.20;99.90;;;;;;5133967;27;20598;-79
2022/01/29 00:51:49;;;;;;;10.65;3.85;;;4.20;99.90;;;;;;5133830;27;20024;-76
2022/01/29 00:54:15;;;;;;;11.50;4.55;;;4.20;99.90;;;;;;5133719;27;20077;-76
2022/01/29 00:56:40;;;;;;;8.80;4.10;;;4.20;99.90;;;;;;5133735;27;20062;-77
2022/01/29 00:59:06;;;;;;;12.38;4.32;;;4.20;99.90;;;;;;5133621;27;20023;-75
2022/01/29 01:01:32;;;;;;;8.30;3.85;;;4.20;99.90;;;;;;5133118;27;20027;-77
2022/01/29 01:03:58;;;;;;;8.10;3.35;;;4.20;99.90;;;;;;5133528;27;20035;-77
2022/01/29 01:06:24;;;;;;;11.48;3.60;;;4.20;99.90;;;;;;5115148;27;20472;-75
2022/01/29 01:08:50;;;;;;;9.25;3.88;;;4.10;99.90;;;;;;5114877;27;20579;-76
2022/01/29 01:11:16;;;;;;;9.77;4.82;;;4.20;99.90;;;;;;5114881;27;20030;-75
2022/01/29 01:13:42;;;;;;;11.98;4.50;;;4.10;99.90;;;;;;5133181;27;20069;-77
2022/01/29 01:16:08;;;;;;;14.30;5.10;;;4.10;99.90;;;;;;5133199;27;20024;-76
2022/01/29 01:18:34;;;;;;;11.65;3.83;;;4.10;99.90;;;;;;5114483;27;20043;-78
2022/01/29 01:21:00;;;;;;;10.63;4.03;;;4.10;99.90;;;;;;5133320;27;20026;-74
2022/01/29 01:23:26;;;;;;;7.00;3.17;;;4.10;99.90;;;;;;5133014;27;20027;-76
2022/01/29 01:25:52;;;;;;;11.52;3.83;;;4.10;99.90;;;;;;5133066;27;20046;-74
2022/01/29 01:28:18;;;;;;;11.05;3.72;;;4.10;99.90;;;;;;5132908;27;20083;-77
2022/01/29 01:30:44;;;;;;;6.47;2.53;;;4.10;99.90;;;;;;5132472;27;20020;-74
2022/01/29 01:33:10;;;;;;;9.30;3.78;;;4.00;99.90;;;;;;5132787;27;20084;-75
2022/01/29 01:35:45;;;;;;;8.73;4.38;;;4.00;99.90;;;;;;5114820;27;20103;-77
2022/01/29 01:38:13;;;;;;;10.43;3.42;;;4.00;99.90;;;;;;5097470;27;20059;-78
2022/01/29 01:40:43;;;;;;;8.55;3.85;;;4.00;99.90;;;;;;5097470;27;20040;-76
2022/01/29 01:43:09;;;;;;;9.05;3.80;;;3.90;99.90;;;;;;5133001;27;20550;-76
2022/01/29 01:45:36;;;;;;;9.85;4.57;;;3.90;99.90;;;;;;5132827;27;20051;-78
2022/01/29 01:48:05;;;;;;;9.20;3.58;;;3.80;99.90;;;;;;5132828;27;20149;-78
2022/01/29 01:50:31;;;;;;;10.50;3.90;;;3.80;99.90;;;;;;5132809;27;20106;-79
2022/01/29 01:52:57;;;;;;;13.32;4.53;;;3.80;99.90;;;;;;5132676;27;20023;-79
2022/01/29 01:55:24;;;;;;;9.65;4.38;;;3.80;99.90;;;;;;5131912;27;20019;-79
2022/01/29 01:57:50;;;;;;;6.65;3.58;;;3.80;99.90;;;;;;5132026;27;20447;-78
2022/01/29 02:00:16;;;;;;;9.57;3.28;;;3.80;99.90;;;;;;5132411;27;20054;-77
2022/01/29 02:02:42;;;;;;;8.10;3.20;;;3.80;99.90;;;;;;5113456;27;20516;-77
2022/01/29 02:05:09;;;;;;;9.38;4.22;;;3.80;99.90;;;;;;5132250;27;20392;-77
2022/01/29 02:07:35;;;;;;;7.40;3.25;;;3.80;99.90;;;;;;5132521;27;20736;-77
2022/01/29 02:10:08;;;;;;;11.60;3.85;;;3.90;99.90;;;;;;5113898;27;20081;-76
2022/01/29 02:12:57;;;;;;;8.88;3.90;;;3.80;99.90;;;;;;5113893;27;20051;-74
2022/01/29 02:15:25;;;;;;;10.32;4.13;;;3.90;99.90;;;;;;5132410;27;20487;-76
2022/01/29 02:17:52;;;;;;;10.65;3.95;;;3.80;99.90;;;;;;5132424;27;20111;-76
2022/01/29 02:20:21;;;;;;;14.23;3.63;;;3.90;99.90;;;;;;5132217;28;20019;-76
2022/01/29 02:22:47;;;;;;;13.65;4.53;;;3.90;99.90;;;;;;5132362;28;20023;-75
2022/01/29 02:25:36;;;;;;;13.10;4.22;;;3.90;99.90;;;;;;5132111;28;20020;-76
2022/01/29 02:28:07;;;;;;;16.05;4.35;;;3.90;99.90;;;;;;5113965;28;20023;-76
2022/01/29 02:30:35;;;;;;;7.93;3.25;;;3.90;99.90;;;;;;5132373;28;20027;-76
2022/01/29 02:33:09;;;;;;;10.65;3.72;;;3.80;99.90;;;;;;5131962;28;20031;-72
2022/01/29 02:35:40;;;;;;;7.93;2.95;;;3.80;99.90;;;;;;5132409;28;20076;-74
2022/01/29 02:38:07;;;;;;;14.68;3.92;;;3.90;99.90;;;;;;5132057;28;20054;-77
2022/01/29 02:40:44;;;;;;;10.10;3.22;;;3.80;99.90;;;;;;5132244;27;20073;-75
2022/01/29 02:43:17;;;;;;;10.77;3.65;;;3.80;99.90;;;;;;5131850;28;20456;-75
2022/01/29 02:45:44;;;;;;;6.50;2.63;;;3.80;99.90;;;;;;5113744;28;20070;-75
2022/01/29 02:48:11;;;;;;;7.15;2.45;;;3.80;99.90;;;;;;5123874;28;20045;-75
2022/01/29 02:50:38;;;;;;;7.32;2.95;;;3.80;99.90;;;;;;5132010;28;20154;-77
2022/01/29 02:53:04;;;;;;;8.52;3.53;;;3.80;99.90;;;;;;5131929;28;20508;-75
2022/01/29 02:55:30;;;;;;;5.47;2.78;;;3.80;99.90;;;;;;5132077;28;20101;-77
2022/01/29 02:57:56;;;;;;;7.22;2.80;;;3.70;99.90;;;;;;5132126;28;20030;-73
2022/01/29 03:00:23;;;;;;;7.07;3.08;;;3.80;99.90;;;;;;5113595;28;20465;-73
2022/01/29 03:02:49;;;;;;;10.23;3.78;;;3.80;99.90;;;;;;5131776;28;20035;-72
2022/01/29 03:05:15;;;;;;;6.35;2.60;;;3.70;99.90;;;;;;5132175;28;20030;-74
2022/01/29 03:07:40;;;;;;;12.77;3.58;;;3.80;99.90;;;;;;5131887;27;20034;-76
2022/01/29 03:10:07;;;;;;;8.52;3.33;;;3.70;99.90;;;;;;5135740;27;20023;-80
2022/01/29 03:12:34;;;;;;;9.32;2.90;;;3.70;99.90;;;;;;5117387;27;20027;-74
2022/01/29 03:15:00;;;;;;;7.78;3.47;;;3.70;99.90;;;;;;5135784;27;20031;-73
2022/01/29 03:17:25;;;;;;;8.90;3.15;;;3.60;99.90;;;;;;5135654;27;20424;-77
2022/01/29 03:19:53;;;;;;;9.75;3.45;;;3.70;99.90;;;;;;5135829;27;20039;-77
2022/01/29 03:22:19;;;;;;;15.80;4.80;;;3.60;99.90;;;;;;5134975;27;20382;-80
2022/01/29 03:24:45;;;;;;;9.23;2.85;;;3.70;99.90;;;;;;5135324;27;20167;-72
2022/01/29 03:27:12;;;;;;;9.82;2.90;;;3.70;99.90;;;;;;5116845;27;20098;-80
2022/01/29 03:29:38;;;;;;;11.52;3.50;;;3.70;99.90;;;;;;5135046;27;20039;-74
2022/01/29 03:32:04;;;;;;;9.57;3.40;;;3.70;99.90;;;;;;5116699;27;20526;-77
2022/01/29 03:34:30;;;;;;;15.10;4.00;;;3.70;99.90;;;;;;5135352;27;20484;-75
2022/01/29 03:36:57;;;;;;;11.82;3.53;;;3.70;99.90;;;;;;5135012;27;20016;-78
2022/01/29 03:39:27;;;;;;;7.03;2.90;;;3.70;99.90;;;;;;5135302;27;20026;-76
2022/01/29 03:41:59;;;;;;;10.00;2.70;;;3.70;99.90;;;;;;5134769;27;20075;-78
2022/01/29 03:44:24;;;;;;;10.32;3.08;;;3.70;99.90;;;;;;5135364;27;20058;-77
2022/01/29 03:46:50;;;;;;;8.50;3.95;;;3.70;99.90;;;;;;5135115;27;20055;-77
2022/01/29 03:49:16;;;;;;;10.45;3.67;;;3.70;99.90;;;;;;5135216;27;20391;-76
2022/01/29 03:51:42;;;;;;;5.45;2.83;;;3.70;99.90;;;;;;5116415;27;20019;-76
2022/01/29 03:54:08;;;;;;;8.98;3.65;;;3.60;99.90;;;;;;5134964;27;20038;-77
2022/01/29 03:56:34;;;;;;;10.27;3.20;;;3.70;99.90;;;;;;5134473;27;20023;-79
2022/01/29 03:59:00;;;;;;;13.38;4.15;;;3.60;99.90;;;;;;5134791;27;20035;-78
2022/01/29 04:01:26;;;;;;;14.05;5.50;;;3.60;99.90;;;;;;5134338;27;20019;-77
2022/01/29 04:03:52;;;;;;;12.18;3.50;;;3.60;99.90;;;;;;5134779;27;20063;-74
2022/01/29 04:06:18;;;;;;;9.50;3.78;;;3.60;99.90;;;;;;5134547;27;20026;-76
2022/01/29 04:08:44;;;;;;;10.48;3.85;;;3.60;99.90;;;;;;5134375;27;20026;-76
2022/01/29 04:11:13;;;;;;;6.50;2.78;;;3.50;99.90;;;;;;5134606;27;20094;-77
2022/01/29 04:13:43;;;;;;;10.27;4.10;;;3.50;99.90;;;;;;5133958;27;20541;-76
2022/01/29 04:16:14;;;;;;;9.63;3.45;;;3.50;99.90;;;;;;5133755;27;20066;-74
2022/01/29 04:18:40;;;;;;;10.50;3.78;;;3.40;99.90;;;;;;5134293;27;20030;-77
2022/01/29 04:21:07;;;;;;;8.63;4.18;;;3.40;99.90;;;;;;5133044;27;20558;-75
2022/01/29 04:23:34;;;;;;;12.90;4.55;;;3.40;99.90;;;;;;5134415;27;20042;-75
2022/01/29 04:26:01;;;;;;;12.85;6.57;;;3.40;99.90;;;;;;5133897;27;20019;-75
2022/01/29 04:28:36;;;;;;;19.95;8.38;;;3.40;99.90;;;;;;5133651;27;20031;-75
2022/01/29 04:31:21;;;;;;;15.43;8.07;;;3.40;99.90;;;;;;5133685;27;20477;-78
2022/01/29 04:33:47;;;;;;;8.95;4.78;;;3.40;99.90;;;;;;5133968;27;20035;-79
2022/01/29 04:36:13;;;;;;;13.02;4.80;;;3.40;99.90;;;;;;5133953;27;20547;-77
2022/01/29 04:38:39;;;;;;;15.15;4.15;;;3.40;99.90;;;;;;5133894;27;20068;-77
2022/01/29 04:41:06;;;;;;;17.10;5.07;;;3.40;99.90;;;;;;5133884;27;20044;-77
2022/01/29 04:43:33;;;;;;;11.07;3.80;;;3.40;99.90;;;;;;5133357;27;20118;-76
2022/01/29 04:45:59;;;;;;;6.75;2.90;;;3.40;99.90;;;;;;5133812;27;20019;-75
2022/01/29 04:48:25;;;;;;;10.68;3.00;;;3.40;99.90;;;;;;5133688;27;20030;-75
2022/01/29 04:50:51;;;;;;;10.88;4.05;;;3.40;99.90;;;;;;5133746;27;20050;-77
2022/01/29 04:53:17;;;;;;;9.45;2.95;;;3.40;99.90;;;;;;5133531;27;20027;-78
2022/01/29 04:55:43;;;;;;;17.25;5.50;;;3.40;99.90;;;;;;5133175;27;20030;-79
2022/01/29 04:58:09;;;;;;;15.98;6.40;;;3.40;99.90;;;;;;5133708;27;20019;-78
2022/01/29 05:00:35;;;;;;;19.92;7.72;;;3.30;99.90;;;;;;5114900;27;20457;-77
2022/01/29 05:03:12;;;;;;;13.57;6.15;;;3.30;99.90;;;;;;5132694;27;20061;-75
2022/01/29 05:05:41;;;;;;;18.45;6.00;;;3.30;99.90;;;;;;5133281;27;20027;-74
2022/01/29 05:08:07;;;;;;;9.27;3.47;;;3.20;99.90;;;;;;5132117;27;20019;-75
2022/01/29 05:10:35;;;;;;;10.95;3.08;;;3.20;99.90;;;;;;5097359;27;20126;-77
2022/01/29 05:13:07;;;;;;;9.30;3.25;;;3.20;99.90;;;;;;5097626;27;20030;-74
2022/01/29 05:15:46;;;;;;;10.63;3.30;;;3.20;99.90;;;;;;5132337;27;20098;-74
2022/01/29 05:29:10;;;;;;;8.18;2.75;;;3.00;99.90;;;;;;5132321;27;20472;-73
2022/01/29 05:31:37;;;;;;;10.27;2.88;;;2.90;99.90;;;;;;5131842;27;20023;-75
2022/01/29 05:34:03;;;;;;;7.10;3.00;;;2.90;99.90;;;;;;5132632;27;20685;-75
2022/01/29 05:36:29;;;;;;;7.63;2.85;;;2.90;99.90;;;;;;5132369;27;20097;-74
2022/01/29 05:38:55;;;;;;;8.65;3.40;;;2.80;99.90;;;;;;5135257;27;20199;-76
2022/01/29 05:41:21;;;;;;;11.05;3.25;;;2.90;99.90;;;;;;5114421;27;20149;-76
2022/01/29 05:43:47;;;;;;;7.32;3.25;;;2.80;99.90;;;;;;5133845;27;20066;-76
2022/01/29 05:46:15;;;;;;;10.20;3.40;;;2.80;99.90;;;;;;5132479;27;20033;-76
2022/01/29 05:48:41;;;;;;;7.13;3.28;;;2.80;99.90;;;;;;5132492;27;20063;-76
2022/01/29 05:51:08;;;;;;;7.60;4.28;;;2.80;99.90;;;;;;5132573;27;20106;-74
2022/01/29 05:53:35;;;;;;;15.52;3.42;;;2.70;99.90;;;;;;5132034;27;20034;-76
2022/01/29 05:56:01;;;;;;;10.00;4.18;;;2.70;99.90;;;;;;5132609;27;20471;-76
2022/01/29 05:58:27;;;;;;;9.30;3.40;;;2.70;99.90;;;;;;5132812;27;20023;-76
2022/01/29 06:00:53;;;;;;;7.03;2.72;;;2.70;99.90;;;;;;5132122;27;20020;-75
2022/01/29 06:03:20;;;;;;;6.30;2.55;;;2.60;99.90;;;;;;5093074;28;20413;-76
2022/01/29 06:05:46;;;;;;;9.27;3.60;;;2.70;99.90;;;;;;5112090;28;20035;-75
2022/01/29 06:08:11;;;;;;;12.48;3.80;;;2.70;99.90;;;;;;5111267;28;20496;-76
2022/01/29 06:10:38;;;;;;;12.40;1.95;;;2.70;99.90;;;;;;5111348;28;20024;-76
2022/01/29 06:13:10;;;;;;;9.98;3.92;;;2.60;99.90;;;;;;5111682;28;20114;-75
2022/01/29 06:15:44;;;;;;;7.18;3.17;;;2.60;99.90;;;;;;5111761;28;20088;-74
2022/01/29 06:18:13;;;;;;;9.25;2.88;;;2.60;99.90;;;;;;5103582;28;20030;-76
2022/01/29 06:20:40;;;;;;;6.93;2.88;;;2.50;99.90;;;;;;5093605;28;20489;-76
2022/01/29 06:23:06;;;;;;;7.50;2.95;;;2.60;99.90;;;;;;5111614;28;20093;-76
2022/01/29 06:25:33;;;;;;;11.25;3.50;;;2.50;99.90;;;;;;5111992;28;20453;-75
2022/01/29 06:27:59;;;;;;;9.68;4.45;;;2.50;99.90;;;;;;5111503;28;20038;-76
2022/01/29 06:30:25;;;;;;;7.95;3.60;;;2.60;99.90;;;;;;5093264;28;20540;-75
2022/01/29 06:32:51;;;;;;;9.52;3.17;;;2.60;99.90;;;;;;5111626;28;20123;-75
2022/01/29 06:35:17;;;;;;;8.07;3.50;;;2.70;99.90;;;;;;5112688;28;20027;-76
2022/01/29 06:37:43;;;;;;;10.65;3.03;;;2.70;99.90;;;;;;5111609;28;20103;-75
2022/01/29 06:40:09;;;;;;;21.85;8.32;;;2.70;99.90;;;;;;5111577;28;20103;-74
2022/01/29 06:42:35;;;;;;;29.58;13.85;;;2.70;99.90;;;;;;5111471;28;20080;-75
2022/01/29 06:45:02;;;;;;;15.82;7.65;;;2.80;99.90;;;;;;5115402;28;20027;-75
2022/01/29 06:47:28;;;;;;;13.95;6.38;;;2.80;99.90;;;;;;5115572;28;20031;-74
2022/01/29 06:49:55;;;;;;;16.95;6.55;;;2.80;99.90;;;;;;5115581;28;20104;-75
2022/01/29 06:52:21;;;;;;;22.70;7.15;;;2.80;99.90;;;;;;5115537;28;20031;-76
2022/01/29 06:54:47;;;;;;;18.58;7.97;;;2.80;99.90;;;;;;5115322;28;20643;-76
2022/01/29 06:57:13;;;;;;;23.40;8.57;;;2.80;99.90;;;;;;5097137;28;20043;-75
2022/01/29 06:59:39;;;;;;;21.02;8.07;;;2.70;99.90;;;;;;5097065;28;20023;-76
2022/01/29 07:02:05;;;;;;;22.88;9.13;;;2.60;99.90;;;;;;5124066;27;20429;-75
2022/01/29 07:04:31;;;;;;;21.90;8.65;;;2.70;99.90;;;;;;5136456;27;20031;-76
2022/01/29 07:06:57;;;;;;;21.35;7.65;;;2.70;99.90;;;;;;5135119;27;20027;-73
2022/01/29 07:09:23;;;;;;;15.02;5.65;;;2.80;99.90;;;;;;5135123;27;20404;-74
2022/01/29 07:11:54;;;;;;;16.63;5.95;;;2.90;99.90;;;;;;5133453;27;20022;-74
2022/01/29 07:14:21;;;;;;;16.08;6.28;;;3.00;99.90;;;;;;5122350;27;20109;-75
2022/01/29 07:16:47;;;;;;;11.63;4.43;;;3.10;99.90;;;;;;5114676;27;20094;-73
2022/01/29 07:19:13;;;;;;;13.00;5.50;;;3.20;99.90;;;;;;5114726;27;20102;-74
2022/01/29 07:21:39;;;;;;;22.73;8.52;;;3.40;99.90;;;;;;5121049;27;20045;-73
2022/01/29 07:24:06;;;;;;;10.82;4.63;;;3.40;99.90;;;;;;5135266;27;20041;-72
2022/01/29 07:26:32;;;;;;;9.88;3.95;;;3.50;99.90;;;;;;5134998;27;20479;-74
2022/01/29 07:28:58;;;;;;;7.28;3.63;;;3.60;99.90;;;;;;5135217;27;20028;-76
2022/01/29 07:31:24;;;;;;;8.45;3.55;;;3.60;99.90;;;;;;5135356;27;20026;-76
2022/01/29 07:33:50;;;;;;;13.30;4.57;;;3.50;99.00;;;;;;5115435;27;20015;-75
2022/01/29 07:36:16;;;;;;;8.82;3.65;;;3.40;99.90;;;;;;5134792;27;20035;-75
2022/01/29 07:38:42;;;;;;;11.98;5.07;;;3.20;99.90;;;;;;5134871;27;20573;-76
2022/01/29 07:41:08;;;;;;;11.93;4.78;;;3.10;99.90;;;;;;5141342;27;20054;-75
2022/01/29 07:43:33;;;;;;;20.95;8.10;;;3.00;99.90;;;;;;5120744;27;20047;-76
2022/01/29 07:45:59;;;;;;;15.88;7.00;;;3.00;99.90;;;;;;5114450;28;20054;-72
2022/01/29 07:48:25;;;;;;;11.50;5.10;;;3.00;99.90;;;;;;5120365;27;20046;-74
2022/01/29 07:50:51;;;;;;;12.93;5.13;;;2.90;99.90;;;;;;5144788;27;20038;-75
2022/01/29 07:53:17;;;;;;;8.13;5.15;;;2.90;99.90;;;;;;5136331;27;20042;-76
2022/01/29 07:55:43;;;;;;;11.10;4.18;;;3.00;99.90;;;;;;5136962;27;20007;-75
2022/01/29 07:58:10;;;;;;;13.15;5.70;;;3.10;99.90;;;;;;5126311;27;20492;-74
2022/01/29 08:00:36;;;;;;;14.68;6.30;;;3.40;99.90;;;;;;5130432;27;20098;-75
2022/01/29 08:03:03;;;;;;;13.30;5.45;;;3.60;99.90;;;;;;5132572;27;20030;-75
2022/01/29 08:05:30;;;;;;;12.70;4.80;;;3.70;99.90;;;;;;5134333;27;20109;-70
2022/01/29 08:07:55;;;;;;;13.70;5.20;;;3.90;98.60;;;;;;5134091;27;20019;-74
2022/01/29 08:10:21;;;;;;;11.75;4.65;;;4.10;98.80;;;;;;5115550;27;20030;-75
2022/01/29 08:12:47;;;;;;;10.82;4.70;;;4.10;97.50;;;;;;5133891;27;20019;-75
2022/01/29 08:15:13;;;;;;;9.23;3.55;;;4.20;97.00;;;;;;5134463;27;20122;-73
2022/01/29 08:17:39;;;;;;;8.10;3.70;;;4.20;94.40;;;;;;5134158;27;20043;-74
2022/01/29 08:20:05;;;;;;;8.25;2.60;;;4.20;94.80;;;;;;5134301;27;20020;-74
2022/01/29 08:22:31;;;;;;;6.63;2.92;;;4.10;93.30;;;;;;5113588;27;20085;-75
2022/01/29 08:24:57;;;;;;;10.65;3.88;;;4.00;93.80;;;;;;5112189;28;20016;-77
2022/01/29 08:27:23;;;;;;;8.57;2.80;;;4.10;94.70;;;;;;5112147;28;20443;-75
2022/01/29 08:29:49;;;;;;;5.90;2.95;;;4.20;93.50;;;;;;5112442;28;20020;-74
2022/01/29 08:32:15;;;;;;;9.65;3.28;;;4.20;94.60;;;;;;5112249;28;20103;-74
2022/01/29 08:34:46;;;;;;;9.23;3.33;;;4.20;95.10;;;;;;5088270;28;20042;-73
2022/01/29 08:37:11;;;;;;;7.63;2.78;;;4.20;94.40;;;;;;5112155;28;20032;-73
2022/01/29 08:39:37;;;;;;;4.78;2.80;;;4.30;94.00;;;;;;5118919;27;20015;-75
2022/01/29 08:42:04;;;;;;;9.98;3.45;;;4.20;92.80;;;;;;5115326;27;20485;-76
2022/01/29 08:44:29;;;;;;;6.80;2.40;;;4.20;92.30;;;;;;5111747;28;20059;-76
2022/01/29 08:46:55;;;;;;;5.13;2.80;;;4.30;92.90;;;;;;5119265;27;20054;-73
2022/01/29 08:49:21;;;;;;;5.10;2.53;;;4.30;93.60;;;;;;5116198;27;20409;-75
2022/01/29 08:51:47;;;;;;;6.00;2.45;;;4.20;93.50;;;;;;5111565;28;20423;-75
2022/01/29 08:54:13;;;;;;;5.55;2.10;;;4.20;92.30;;;;;;5111610;28;20049;-74
2022/01/29 08:56:39;;;;;;;7.15;2.72;;;4.20;91.70;;;;;;5126402;27;20058;-73
2022/01/29 08:59:05;;;;;;;7.40;3.17;;;4.20;92.40;;;;;;5117150;27;20488;-76
2022/01/29 09:01:31;;;;;;;5.65;2.40;;;4.20;92.90;;;;;;5097442;27;20055;-75
2022/01/29 09:04:00;;;;;;;9.77;2.58;;;4.20;93.00;;;;;;5125959;27;20111;-75
2022/01/29 09:06:26;;;;;;;5.68;2.55;;;4.30;92.50;;;;;;5100553;27;20034;-71
2022/01/29 09:08:52;;;;;;;6.07;2.92;;;4.50;93.60;;;;;;5109618;27;20015;-72
2022/01/29 09:11:19;;;;;;;8.43;3.20;;;4.40;92.80;;;;;;5133373;27;20023;-76
2022/01/29 09:13:45;;;;;;;8.88;3.70;;;4.50;92.40;;;;;;5133144;27;20456;-73
2022/01/29 09:16:12;;;;;;;5.97;2.80;;;4.60;92.90;;;;;;5133192;27;20080;-76
2022/01/29 09:18:38;;;;;;;8.25;2.85;;;4.60;93.10;;;;;;5133341;27;20094;-75
2022/01/29 09:21:04;;;;;;;4.28;2.40;;;4.70;93.10;;;;;;5133597;27;20494;-74
2022/01/29 09:23:30;;;;;;;3.67;2.28;;;4.80;93.40;;;;;;5132824;27;20030;-73
2022/01/29 09:25:56;;;;;;;6.70;2.90;;;4.90;91.70;;;;;;5133245;27;20349;-76
2022/01/29 09:28:23;;;;;;;11.38;3.80;;;4.70;92.00;;;;;;5094332;28;20020;-77
2022/01/29 09:30:49;;;;;;;6.07;2.65;;;4.90;93.20;;;;;;5129978;27;20027;-74
2022/01/29 09:33:16;;;;;;;11.05;3.97;;;5.00;93.30;;;;;;5132520;27;20110;-77
2022/01/29 09:35:43;;;;;;;10.32;4.05;;;4.90;92.80;;;;;;5132782;27;20015;-76
2022/01/29 09:38:11;;;;;;;18.83;7.45;;;5.10;93.00;;;;;;5132862;27;20159;-75
2022/01/29 09:40:37;;;;;;;7.00;4.15;;;5.20;92.90;;;;;;5132876;27;20039;-74
2022/01/29 09:43:07;;;;;;;7.55;3.22;;;5.10;90.00;;;;;;5132455;27;20035;-74
2022/01/29 09:45:34;;;;;;;10.82;4.03;;;5.10;92.40;;;;;;5115729;27;20042;-74
2022/01/29 09:48:03;;;;;;;4.68;2.67;;;5.10;91.50;;;;;;5132626;27;20011;-75
2022/01/29 09:50:34;;;;;;;8.73;2.80;;;5.00;91.10;;;;;;5132971;27;20027;-76
2022/01/29 09:53:02;;;;;;;11.48;4.57;;;4.80;91.10;;;;;;5132250;27;20464;-74
2022/01/29 09:55:29;;;;;;;5.13;2.38;;;5.10;92.00;;;;;;5132566;27;20033;-74
2022/01/29 09:57:55;;;;;;;10.77;4.20;;;5.00;90.80;;;;;;5131826;27;20051;-75
2022/01/29 10:00:22;;;;;;;4.90;2.72;;;5.00;90.40;;;;;;5132010;27;20534;-75
2022/01/29 10:03:09;;;;;;;9.90;3.47;;;5.00;90.80;;;;;;5131848;27;20098;-74
2022/01/29 10:05:46;;;;;;;8.23;3.10;;;5.00;88.80;;;;;;5115729;27;20423;-75
2022/01/29 10:08:12;;;;;;;7.25;2.53;;;5.30;91.60;;;;;;5132309;27;20038;-75
2022/01/29 10:10:46;;;;;;;6.82;2.92;;;5.10;88.10;;;;;;5110651;28;20016;-74
2022/01/29 10:13:25;;;;;;;10.75;4.07;;;5.20;89.30;;;;;;5124451;27;20098;-74
2022/01/29 10:16:03;;;;;;;9.77;3.20;;;5.30;89.60;;;;;;5132133;27;20023;-75
2022/01/29 10:18:30;;;;;;;6.72;2.15;;;5.40;90.10;;;;;;5115327;28;20023;-72
2022/01/29 10:21:17;;;;;;;6.22;3.00;;;5.10;89.80;;;;;;5131770;28;20481;-73
2022/01/29 10:23:45;;;;;;;7.28;2.50;;;5.30;92.40;;;;;;5132120;28;20069;-75
2022/01/29 10:26:26;;;;;;;4.13;2.80;;;5.20;90.40;;;;;;5113996;28;20023;-74
2022/01/29 10:28:55;;;;;;;7.93;2.45;;;5.10;90.20;;;;;;5126590;28;20500;-73
2022/01/29 10:31:21;;;;;;;4.18;2.35;;;5.20;91.00;;;;;;5132073;28;20530;-73
2022/01/29 10:33:47;;;;;;;5.78;3.25;;;5.20;90.50;;;;;;5131980;28;20109;-76
2022/01/29 10:36:15;;;;;;;7.80;2.95;;;5.20;90.80;;;;;;5132306;28;20076;-73
2022/01/29 10:38:41;;;;;;;9.60;2.83;;;5.30;90.80;;;;;;5131978;28;20031;-74
2022/01/29 10:41:26;;;;;;;8.75;3.42;;;5.40;90.90;;;;;;5131918;28;20554;-74
2022/01/29 10:44:10;;;;;;;10.02;3.17;;;5.50;91.10;;;;;;5117217;28;20042;-73
2022/01/29 10:46:45;;;;;;;7.35;2.63;;;5.60;91.10;;;;;;5131421;28;20478;-75
2022/01/29 10:49:25;;;;;;;6.30;3.28;;;5.50;88.00;;;;;;5131706;28;20031;-73
2022/01/29 10:52:17;;;;;;;9.52;3.05;;;5.40;89.50;;;;;;5131663;28;20068;-72
2022/01/29 10:54:46;;;;;;;11.65;2.88;;;5.70;90.10;;;;;;5128111;28;20035;-75
2022/01/29 10:57:16;;;;;;;6.85;3.85;;;5.70;90.10;;;;;;5131700;28;20024;-73
2022/01/29 10:59:48;;;;;;;7.40;4.00;;;5.60;90.90;;;;;;5131890;28;20023;-72
2022/01/29 11:02:14;;;;;;;8.60;4.22;;;5.80;92.00;;;;;;5131583;27;20034;-74
2022/01/29 11:04:41;;;;;;;7.00;3.17;;;5.70;90.10;;;;;;5109930;28;20385;-74
2022/01/29 11:07:15;;;;;;;7.93;2.80;;;5.90;91.80;;;;;;5131189;28;20019;-74
2022/01/29 11:09:43;;;;;;;12.00;3.97;;;5.80;90.40;;;;;;5088996;28;20451;-75
2022/01/29 11:12:11;;;;;;;9.60;3.08;;;5.80;90.10;;;;;;5111094;28;20015;-75
2022/01/29 11:14:38;;;;;;;9.02;3.42;;;5.90;88.10;;;;;;5112740;28;20072;-75
2022/01/29 11:17:04;;;;;;;8.30;4.00;;;5.90;87.70;;;;;;5131664;28;20015;-74
2022/01/29 11:19:32;;;;;;;11.45;4.63;;;6.00;88.60;;;;;;5131230;28;20033;-74
2022/01/29 11:22:06;;;;;;;7.13;3.10;;;6.20;91.70;;;;;;5131642;28;20015;-75
2022/01/29 11:24:33;;;;;;;7.78;3.60;;;6.10;88.70;;;;;;5130942;28;20035;-76
2022/01/29 11:26:59;;;;;;;13.98;4.10;;;5.80;87.80;;;;;;5131467;28;20068;-75
2022/01/29 11:29:28;;;;;;;6.70;3.65;;;5.70;88.90;;;;;;5132640;27;20027;-75
2022/01/29 11:32:22;;;;;;;9.70;3.47;;;5.70;89.60;;;;;;5135090;27;20088;-73
2022/01/29 11:35:03;;;;;;;12.90;3.70;;;5.60;88.50;;;;;;5135190;27;20019;-75
2022/01/29 11:37:48;;;;;;;6.70;3.17;;;5.30;90.50;;;;;;5134641;27;20211;-75
2022/01/29 11:40:19;;;;;;;7.35;3.35;;;5.10;91.00;;;;;;5134572;27;20168;-75
2022/01/29 11:43:04;;;;;;;10.65;3.90;;;5.30;90.70;;;;;;5133943;27;20513;-74
2022/01/29 11:45:35;;;;;;;8.70;3.88;;;5.30;90.70;;;;;;5134798;27;20035;-72
2022/01/29 11:48:02;;;;;;;8.32;3.95;;;5.30;91.20;;;;;;5135397;27;20027;-75
2022/01/29 11:50:28;;;;;;;12.93;4.13;;;5.50;90.20;;;;;;5134569;27;20400;-74
2022/01/29 11:52:56;;;;;;;6.30;3.22;;;5.40;89.10;;;;;;5134266;27;20023;-75
2022/01/29 11:55:45;;;;;;;9.20;3.47;;;5.40;87.80;;;;;;5116417;27;20062;-77
2022/01/29 11:58:17;;;;;;;8.57;4.28;;;5.60;89.20;;;;;;5134533;27;20054;-77
2022/01/29 12:00:48;;;;;;;9.93;3.25;;;5.90;87.70;;;;;;5116212;27;20027;-75
2022/01/29 12:03:32;;;;;;;13.82;4.40;;;6.10;87.40;;;;;;5133545;27;20042;-75
2022/01/29 12:06:29;;;;;;;8.25;2.80;;;6.30;85.70;;;;;;5134120;27;20031;-75
2022/01/29 12:09:10;;;;;;;8.82;3.17;;;6.30;83.30;;;;;;5134932;27;20088;-74
2022/01/29 12:11:41;;;;;;;8.63;3.45;;;6.30;84.30;;;;;;5133135;27;20034;-76
2022/01/29 12:14:13;;;;;;;5.90;3.03;;;6.40;83.20;;;;;;5115902;27;20038;-74
2022/01/29 12:16:49;;;;;;;10.77;4.17;;;6.50;83.40;;;;;;5134495;27;20027;-74
2022/01/29 12:19:40;;;;;;;8.63;3.65;;;6.70;82.60;;;;;;5134358;27;20331;-75
2022/01/29 12:22:15;;;;;;;10.88;4.75;;;6.70;83.70;;;;;;5132969;27;20122;-74
2022/01/29 12:24:49;;;;;;;5.45;3.10;;;6.90;86.10;;;;;;5133794;27;20039;-73
2022/01/29 12:27:15;;;;;;;8.63;4.10;;;6.80;79.90;;;;;;5134189;27;20057;-74
2022/01/29 12:29:42;;;;;;;7.80;4.03;;;6.70;78.60;;;;;;5133486;27;20023;-72
2022/01/29 12:32:09;;;;;;;11.48;4.55;;;6.70;82.50;;;;;;5140960;27;20027;-74
2022/01/29 12:34:35;;;;;;;14.82;5.90;;;6.70;82.40;;;;;;5133654;27;20027;-74
2022/01/29 12:37:17;;;;;;;18.40;7.68;;;6.80;83.60;;;;;;5116301;27;20464;-75
2022/01/29 12:39:46;;;;;;;10.32;3.63;;;6.90;82.10;;;;;;5116894;27;20118;-75
2022/01/29 12:44:58;;;;;;;4.75;2.55;;;6.70;79.30;;;;;;5141332;27;20035;-76
2022/01/29 12:47:32;;;;;;;7.03;2.75;;;6.60;75.40;;;;;;5112913;27;20054;-74
2022/01/29 12:49:58;;;;;;;9.07;3.40;;;6.40;77.60;;;;;;5130428;27;20031;-74
2022/01/29 12:52:26;;;;;;;10.77;4.10;;;6.40;79.70;;;;;;5132725;27;20039;-74
2022/01/29 12:55:01;;;;;;;7.43;3.58;;;6.30;78.00;;;;;;5134583;27;20027;-75
2022/01/29 12:57:41;;;;;;;13.20;5.40;;;6.30;75.40;;;;;;5136943;27;20368;-76
2022/01/29 13:00:14;;;;;;;8.77;3.50;;;6.30;75.00;;;;;;5113039;28;20028;-74
2022/01/29 13:02:40;;;;;;;5.15;2.50;;;6.30;77.40;;;;;;5118446;27;20033;-73
2022/01/29 13:05:07;;;;;;;15.98;7.50;;;6.20;75.00;;;;;;5131905;27;20106;-73
2022/01/29 13:07:36;;;;;;;15.00;7.30;;;6.20;74.60;;;;;;5132271;27;20026;-75
2022/01/29 13:10:08;;;;;;;14.38;6.72;;;6.20;73.30;;;;;;5104545;27;20019;-73
2022/01/29 13:12:44;;;;;;;14.48;4.30;;;6.20;75.70;;;;;;5127270;27;20027;-73